Airport View

Enter AWOS ICAO identifier for current METAR.

ex. KFNL

KSLH 191256Z AUTO 08015G19KT 10SM -DZ OVC009 06/05 A2981 RMK AO2 T00550047

19 May 2019 13:03

Frequency: 118.175

Phone: 231-627-4671

Other Area AWOS: KPLN - KMCD - KMGN - KPZQ

TAF KPLN 191123Z 1912/2012 08012G20KT P6SM OVC009 FM191400 09015G24KT 5SM -SHRA BR OVC005 FM191800 09012G21KT 4SM -SHRA BR OVC007 FM192100 07006KT 3SM -SHRA BR VCTS OVC009CB FM200000 00000KT 5SM -RA BR OVC016 FM200300 23009KT P6SM VCSH OVC007 FM200600 23012KT P6SM OVC007